createdAt,value
2023-05-06T00:01:54.257Z,15.11
2023-05-06T00:04:20.999Z,15.01
2023-05-06T00:06:48.972Z,14.94
2023-05-06T00:09:16.045Z,14.91
2023-05-06T00:11:42.580Z,14.95
2023-05-06T00:14:12.302Z,14.97
2023-05-06T00:16:43.967Z,14.96
2023-05-06T00:19:10.588Z,14.90
2023-05-06T00:21:37.235Z,14.86
2023-05-06T00:24:03.915Z,14.84
2023-05-06T00:26:30.951Z,14.81
2023-05-06T00:28:57.732Z,14.77
2023-05-06T00:31:24.968Z,14.75
2023-05-06T00:33:51.572Z,14.69
2023-05-06T00:36:18.600Z,14.73
2023-05-06T00:38:45.760Z,14.73
2023-05-06T00:41:12.476Z,14.74
2023-05-06T00:43:39.091Z,14.72
2023-05-06T00:46:08.085Z,14.80
2023-05-06T00:48:37.611Z,14.91
2023-05-06T00:51:04.298Z,14.97
2023-05-06T00:53:30.889Z,14.95
2023-05-06T00:56:02.546Z,14.95
2023-05-06T00:58:31.954Z,14.93
2023-05-06T01:00:58.614Z,14.88
2023-05-06T01:03:28.591Z,14.85
2023-05-06T01:06:15.635Z,14.81
2023-05-06T01:08:45.048Z,14.73
2023-05-06T01:11:15.615Z,14.62
2023-05-06T01:13:45.290Z,14.56
2023-05-06T01:16:12.507Z,14.47
2023-05-06T01:18:39.150Z,14.44
2023-05-06T01:21:10.673Z,14.44
2023-05-06T01:23:50.158Z,14.39
2023-05-06T01:26:19.062Z,14.38
2023-05-06T01:28:45.650Z,14.38
2023-05-06T01:31:13.519Z,14.35
2023-05-06T01:33:44.957Z,14.40
2023-05-06T01:36:11.627Z,14.41
2023-05-06T01:38:42.104Z,14.40
2023-05-06T01:41:11.138Z,14.35
2023-05-06T01:43:41.917Z,14.33
2023-05-06T01:46:10.331Z,14.37
2023-05-06T01:48:39.416Z,14.34
2023-05-06T01:51:06.130Z,14.33
2023-05-06T01:53:33.606Z,14.39
2023-05-06T01:56:00.707Z,14.42
2023-05-06T01:58:27.307Z,14.38
2023-05-06T02:00:58.415Z,14.35
2023-05-06T02:03:25.458Z,14.37
2023-05-06T02:05:52.223Z,14.29
2023-05-06T02:08:20.371Z,14.27
2023-05-06T02:10:47.110Z,14.25
2023-05-06T02:13:13.934Z,14.19
2023-05-06T02:15:40.713Z,14.12
2023-05-06T02:18:11.659Z,14.16
2023-05-06T02:20:38.295Z,14.17
2023-05-06T02:23:05.599Z,14.10
2023-05-06T02:25:32.182Z,14.10
2023-05-06T02:27:58.868Z,14.09
2023-05-06T02:30:25.480Z,14.08
2023-05-06T02:32:52.143Z,13.93
2023-05-06T02:35:21.457Z,13.80
2023-05-06T02:37:48.737Z,13.73
2023-05-06T02:40:17.811Z,13.65
2023-05-06T02:42:47.462Z,13.68
2023-05-06T02:45:14.100Z,13.65
2023-05-06T02:47:41.344Z,13.58
2023-05-06T02:50:08.135Z,13.52
2023-05-06T02:52:37.102Z,13.56
2023-05-06T02:55:03.863Z,13.66
2023-05-06T02:57:33.422Z,13.80
2023-05-06T03:00:02.186Z,13.82
2023-05-06T03:02:31.208Z,13.82
2023-05-06T03:04:57.809Z,13.87
2023-05-06T03:07:24.403Z,13.88
2023-05-06T03:09:51.196Z,13.85
2023-05-06T03:12:17.887Z,13.88
2023-05-06T03:14:44.685Z,13.81
2023-05-06T03:17:11.325Z,13.80
2023-05-06T03:19:37.934Z,13.77
2023-05-06T03:22:06.807Z,13.74
2023-05-06T03:24:36.241Z,13.75
2023-05-06T03:27:05.385Z,13.74
2023-05-06T03:29:35.162Z,13.74
2023-05-06T03:32:07.170Z,13.71
2023-05-06T03:34:42.665Z,13.67
2023-05-06T03:37:12.772Z,13.69
2023-05-06T03:39:45.246Z,13.70
2023-05-06T03:42:14.550Z,13.70
2023-05-06T03:44:41.311Z,13.66
2023-05-06T03:47:08.225Z,13.68
2023-05-06T03:49:35.088Z,13.71
2023-05-06T03:52:01.852Z,13.71
2023-05-06T03:54:29.090Z,13.71
2023-05-06T03:56:56.307Z,13.72
2023-05-06T03:59:27.956Z,13.79
2023-05-06T04:01:56.521Z,13.72
2023-05-06T04:04:25.291Z,13.72
2023-05-06T04:06:51.891Z,13.83
2023-05-06T04:09:18.663Z,13.84
2023-05-06T04:11:46.178Z,13.89
2023-05-06T04:14:20.645Z,13.98
2023-05-06T04:16:48.204Z,13.95
2023-05-06T04:19:17.951Z,13.98
2023-05-06T04:21:46.017Z,14.07
2023-05-06T04:24:15.935Z,14.13
2023-05-06T04:26:45.045Z,14.24
2023-05-06T04:29:14.756Z,14.33
2023-05-06T04:31:54.124Z,14.32
2023-05-06T04:34:21.778Z,14.38
2023-05-06T04:36:49.628Z,14.46
2023-05-06T04:39:32.414Z,14.53
2023-05-06T04:41:59.071Z,14.62
2023-05-06T04:44:36.675Z,14.75
2023-05-06T04:47:11.079Z,14.92
2023-05-06T04:49:39.778Z,15.11
2023-05-06T04:52:07.560Z,15.23
2023-05-06T04:54:34.196Z,15.17
2023-05-06T04:57:05.869Z,15.16
2023-05-06T04:59:33.109Z,15.30
2023-05-06T05:02:04.178Z,15.41
2023-05-06T05:04:30.902Z,15.48
2023-05-06T05:06:58.642Z,15.58
2023-05-06T05:09:25.901Z,15.57
2023-05-06T05:11:54.941Z,15.64
2023-05-06T05:14:23.712Z,15.74
2023-05-06T05:16:50.398Z,15.87
2023-05-06T05:19:17.560Z,15.97
2023-05-06T05:21:44.153Z,16.03
2023-05-06T05:24:12.673Z,16.04
2023-05-06T05:26:39.337Z,16.03
2023-05-06T05:29:06.725Z,16.09
2023-05-06T05:31:33.884Z,16.16
2023-05-06T05:34:01.411Z,16.19
2023-05-06T05:36:28.371Z,16.27
2023-05-06T05:38:57.618Z,16.33
2023-05-06T05:41:27.147Z,16.37
2023-05-06T05:43:55.116Z,16.44
2023-05-06T05:46:22.003Z,16.47
2023-05-06T05:48:50.042Z,16.46
2023-05-06T05:51:22.286Z,16.43
2023-05-06T05:53:52.878Z,16.55
2023-05-06T05:56:21.765Z,16.50
2023-05-06T05:58:49.453Z,16.41
2023-05-06T06:01:16.381Z,16.43
2023-05-06T06:03:43.779Z,16.48
2023-05-06T06:06:13.103Z,16.66
2023-05-06T06:08:40.663Z,16.81
2023-05-06T06:11:08.131Z,16.88
2023-05-06T06:13:42.136Z,16.97
2023-05-06T06:16:09.134Z,17.13
2023-05-06T06:18:38.546Z,17.26
2023-05-06T06:21:05.495Z,17.37
2023-05-06T06:23:32.386Z,17.41
2023-05-06T06:25:59.579Z,17.62
2023-05-06T06:28:26.418Z,17.69
2023-05-06T06:30:53.890Z,17.69
2023-05-06T06:33:22.581Z,17.84
2023-05-06T06:35:49.225Z,18.05
2023-05-06T06:38:15.852Z,18.21
2023-05-06T06:40:47.198Z,18.30
2023-05-06T06:43:16.977Z,18.24
2023-05-06T06:45:49.685Z,18.13
2023-05-06T06:48:16.554Z,18.35
2023-05-06T06:50:45.897Z,18.55
2023-05-06T06:53:12.488Z,18.64
2023-05-06T06:55:39.447Z,18.60
2023-05-06T06:58:06.144Z,18.64
2023-05-06T07:00:32.750Z,18.79
2023-05-06T07:02:59.411Z,18.91
2023-05-06T07:05:27.215Z,18.86
2023-05-06T07:07:56.256Z,19.05
2023-05-06T07:10:25.921Z,19.09
2023-05-06T07:12:52.659Z,19.18
2023-05-06T07:15:19.881Z,19.35
2023-05-06T07:17:46.809Z,19.37
2023-05-06T07:20:13.543Z,19.46
2023-05-06T07:22:41.409Z,19.74
2023-05-06T07:25:09.017Z,19.86
2023-05-06T07:27:38.340Z,19.94
2023-05-06T07:30:08.310Z,20.19
2023-05-06T07:32:35.086Z,20.25
2023-05-06T07:35:01.850Z,20.35
2023-05-06T07:37:29.058Z,20.43
2023-05-06T07:39:56.794Z,20.50
2023-05-06T07:42:23.502Z,20.56
2023-05-06T07:44:50.351Z,20.30
2023-05-06T07:47:30.031Z,20.36
2023-05-06T07:49:56.793Z,20.45
2023-05-06T07:52:23.675Z,20.42
2023-05-06T07:54:50.345Z,20.15
2023-05-06T07:57:17.133Z,20.09
2023-05-06T07:59:46.636Z,20.16
2023-05-06T08:02:13.513Z,20.30
2023-05-06T08:04:40.540Z,20.50
2023-05-06T08:07:07.196Z,20.61
2023-05-06T08:09:36.349Z,20.85
2023-05-06T08:12:05.935Z,20.97
2023-05-06T08:14:35.050Z,20.87
2023-05-06T08:17:02.822Z,20.69
2023-05-06T08:19:31.977Z,20.63
2023-05-06T08:22:01.147Z,20.74
2023-05-06T08:24:28.356Z,20.73
2023-05-06T08:26:55.236Z,20.87
2023-05-06T08:29:21.916Z,21.02
2023-05-06T08:31:48.630Z,21.20
2023-05-06T08:34:21.311Z,21.09
2023-05-06T08:36:50.906Z,21.14
2023-05-06T08:39:18.166Z,21.22
2023-05-06T08:41:47.393Z,21.40
2023-05-06T08:44:18.735Z,21.26
2023-05-06T08:46:46.200Z,21.01
2023-05-06T08:49:12.876Z,21.19
2023-05-06T08:51:39.495Z,21.47
2023-05-06T08:54:06.096Z,21.63
2023-05-06T08:56:33.301Z,21.65
2023-05-06T08:59:00.205Z,21.51
2023-05-06T09:01:29.448Z,21.49
2023-05-06T09:03:56.489Z,21.28
2023-05-06T09:06:25.559Z,21.05
2023-05-06T09:08:52.268Z,20.97
2023-05-06T09:11:19.568Z,21.09
2023-05-06T09:13:46.647Z,21.22
2023-05-06T09:16:26.405Z,21.20
2023-05-06T09:18:55.915Z,21.41
2023-05-06T09:21:22.752Z,21.52
2023-05-06T09:23:50.009Z,21.77
2023-05-06T09:26:16.953Z,22.00
2023-05-06T09:28:47.045Z,22.14
2023-05-06T09:31:16.557Z,22.42
2023-05-06T09:33:43.328Z,22.73
2023-05-06T09:36:13.514Z,22.85
2023-05-06T09:38:41.065Z,22.97
2023-05-06T09:41:07.938Z,22.80
2023-05-06T09:43:36.751Z,22.53
2023-05-06T09:46:06.113Z,22.62
2023-05-06T09:48:32.931Z,22.97
2023-05-06T09:51:01.242Z,23.29
2023-05-06T09:53:28.957Z,23.71
2023-05-06T09:55:56.345Z,23.72
2023-05-06T09:58:25.468Z,23.91
2023-05-06T10:00:52.790Z,24.29
2023-05-06T10:03:19.846Z,24.72
2023-05-06T10:05:46.601Z,25.08
2023-05-06T10:08:15.385Z,25.44
2023-05-06T10:10:42.123Z,25.22
2023-05-06T10:13:08.835Z,25.26
2023-05-06T10:15:37.887Z,25.14
2023-05-06T10:18:11.988Z,25.09
2023-05-06T10:20:38.578Z,24.89
2023-05-06T10:23:24.707Z,24.72
2023-05-06T10:25:53.655Z,24.35
2023-05-06T10:28:23.011Z,24.08
2023-05-06T10:31:00.217Z,24.55
2023-05-06T10:33:26.858Z,24.81
2023-05-06T10:36:16.874Z,24.54
2023-05-06T10:38:47.363Z,24.14
2023-05-06T10:41:14.377Z,24.09
2023-05-06T10:43:41.739Z,24.07
2023-05-06T10:46:11.922Z,23.82
2023-05-06T10:48:39.508Z,23.66
2023-05-06T10:51:22.914Z,23.91
2023-05-06T10:54:05.035Z,24.12
2023-05-06T10:56:32.292Z,24.12
2023-05-06T10:59:08.827Z,23.98
2023-05-06T11:01:47.529Z,23.98
2023-05-06T11:04:15.069Z,24.28
2023-05-06T11:06:44.973Z,24.58
2023-05-06T11:09:21.203Z,24.96
2023-05-06T11:12:01.001Z,24.58
2023-05-06T11:14:27.652Z,24.58
2023-05-06T11:16:56.922Z,24.75
2023-05-06T11:19:24.303Z,24.88
2023-05-06T11:21:51.458Z,24.92
2023-05-06T11:24:22.514Z,25.24
2023-05-06T11:26:51.525Z,25.50
2023-05-06T11:29:20.982Z,25.34
2023-05-06T11:31:53.175Z,25.66
2023-05-06T11:34:23.882Z,25.68
2023-05-06T11:36:57.253Z,25.49
2023-05-06T11:39:30.672Z,25.05
2023-05-06T11:42:02.853Z,24.62
2023-05-06T11:44:30.758Z,24.42
2023-05-06T11:46:59.706Z,24.31
2023-05-06T11:49:29.210Z,24.16
2023-05-06T11:51:58.739Z,24.18
2023-05-06T11:54:26.058Z,24.12
2023-05-06T11:56:53.398Z,24.04
2023-05-06T11:59:28.285Z,23.98
2023-05-06T12:01:56.387Z,23.85
2023-05-06T12:04:23.978Z,23.70
2023-05-06T12:07:00.680Z,23.72
2023-05-06T12:09:27.895Z,23.73
2023-05-06T12:11:57.395Z,23.88
2023-05-06T12:14:26.447Z,23.84
2023-05-06T12:16:55.932Z,23.95
2023-05-06T12:19:23.041Z,23.91
2023-05-06T12:21:52.506Z,23.83
2023-05-06T12:24:26.801Z,23.61
2023-05-06T12:26:58.955Z,23.52
2023-05-06T12:29:25.864Z,23.51
2023-05-06T12:32:10.976Z,23.49
2023-05-06T12:34:41.117Z,23.46
2023-05-06T12:37:12.570Z,23.39
2023-05-06T12:39:49.040Z,23.13
2023-05-06T12:42:20.121Z,22.97
2023-05-06T12:44:47.197Z,23.12
2023-05-06T12:47:20.668Z,23.14
2023-05-06T12:49:50.159Z,23.13
2023-05-06T12:52:20.007Z,23.12
2023-05-06T12:54:46.924Z,22.96
2023-05-06T12:57:13.955Z,22.93
2023-05-06T12:59:45.529Z,22.86
2023-05-06T13:02:14.571Z,22.83
2023-05-06T13:04:42.135Z,22.77
2023-05-06T13:07:11.484Z,22.86
2023-05-06T13:09:38.422Z,22.72
2023-05-06T13:12:05.301Z,22.60
2023-05-06T13:14:40.108Z,22.62
2023-05-06T13:17:14.856Z,22.62
2023-05-06T13:19:42.646Z,22.57
2023-05-06T13:22:11.778Z,22.61
2023-05-06T13:24:40.840Z,22.64
2023-05-06T13:27:12.777Z,22.60
2023-05-06T13:29:39.598Z,22.37
2023-05-06T13:32:09.110Z,22.29
2023-05-06T13:34:36.077Z,22.17
2023-05-06T13:37:10.171Z,22.22
2023-05-06T13:39:36.813Z,22.18
2023-05-06T13:42:08.222Z,21.83
2023-05-06T13:44:35.887Z,21.66
2023-05-06T13:47:04.888Z,21.59
2023-05-06T13:49:40.173Z,21.54
2023-05-06T13:52:08.412Z,21.40
2023-05-06T13:54:35.846Z,21.61
2023-05-06T13:57:10.010Z,21.53
2023-05-06T13:59:38.741Z,21.58
2023-05-06T14:02:09.621Z,21.80
2023-05-06T14:04:39.577Z,21.72
2023-05-06T14:07:06.234Z,21.45
2023-05-06T14:09:32.978Z,21.40
2023-05-06T14:11:59.778Z,20.96
2023-05-06T14:14:27.493Z,20.59
2023-05-06T14:16:55.651Z,20.40
2023-05-06T14:19:22.355Z,20.29
2023-05-06T14:21:51.891Z,20.21
2023-05-06T14:24:20.972Z,20.26
2023-05-06T14:26:47.791Z,20.19
2023-05-06T14:29:14.421Z,20.04
2023-05-06T14:31:46.605Z,20.07
2023-05-06T14:34:18.286Z,19.94
2023-05-06T14:36:47.094Z,19.76
2023-05-06T14:39:14.334Z,19.80
2023-05-06T14:41:40.975Z,19.84
2023-05-06T14:44:10.188Z,19.70
2023-05-06T14:46:36.778Z,19.65
2023-05-06T14:49:03.370Z,19.73
2023-05-06T14:51:30.193Z,19.82
2023-05-06T14:53:57.266Z,19.92
2023-05-06T14:56:24.089Z,20.05
2023-05-06T14:58:50.827Z,20.18
2023-05-06T15:01:17.570Z,20.35
2023-05-06T15:03:45.356Z,20.39
2023-05-06T15:06:12.619Z,20.40
2023-05-06T15:08:41.980Z,20.36
2023-05-06T15:11:08.517Z,20.31
2023-05-06T15:13:37.628Z,20.48
2023-05-06T15:16:04.797Z,20.70
2023-05-06T15:18:31.532Z,20.84
2023-05-06T15:21:01.013Z,20.89
2023-05-06T15:23:30.709Z,20.89
2023-05-06T15:25:58.152Z,20.97
2023-05-06T15:28:24.882Z,21.05
2023-05-06T15:30:54.194Z,21.20
2023-05-06T15:33:20.891Z,21.38
2023-05-06T15:35:47.563Z,21.66
2023-05-06T15:38:14.226Z,22.45
2023-05-06T15:40:40.880Z,23.09
2023-05-06T15:43:08.859Z,23.41
2023-05-06T15:45:38.233Z,23.48
2023-05-06T15:48:07.262Z,23.51
2023-05-06T15:50:34.362Z,23.70
2023-05-06T15:53:02.230Z,23.98
2023-05-06T15:55:29.065Z,24.02
2023-05-06T15:58:00.440Z,24.19
2023-05-06T16:00:28.081Z,24.52
2023-05-06T16:02:54.873Z,24.93
2023-05-06T16:05:24.057Z,25.09
2023-05-06T16:07:50.726Z,25.01
2023-05-06T16:10:17.385Z,24.70
2023-05-06T16:12:46.444Z,24.53
2023-05-06T16:15:13.113Z,24.56
2023-05-06T16:17:42.176Z,24.61
2023-05-06T16:20:10.632Z,24.66
2023-05-06T16:22:40.708Z,24.71
2023-05-06T16:25:10.329Z,24.57
2023-05-06T16:27:36.943Z,24.49
2023-05-06T16:30:03.710Z,24.40
2023-05-06T16:32:30.472Z,24.16
2023-05-06T16:34:57.235Z,23.83
2023-05-06T16:37:26.290Z,23.48
2023-05-06T16:39:57.564Z,23.11
2023-05-06T16:42:26.752Z,22.88
2023-05-06T16:44:53.454Z,22.69
2023-05-06T16:47:24.314Z,22.47
2023-05-06T16:49:53.931Z,22.33
2023-05-06T16:52:20.747Z,22.18
2023-05-06T16:54:47.326Z,22.09
2023-05-06T16:57:14.337Z,21.97
2023-05-06T16:59:40.990Z,21.94
2023-05-06T17:02:07.698Z,21.88
2023-05-06T17:04:34.379Z,21.83
2023-05-06T17:07:01.197Z,21.79
2023-05-06T17:09:30.246Z,21.74
2023-05-06T17:11:56.864Z,21.65
2023-05-06T17:14:25.957Z,21.56
2023-05-06T17:16:52.829Z,21.45
2023-05-06T17:19:19.565Z,21.39
2023-05-06T17:21:46.106Z,21.36
2023-05-06T17:24:12.692Z,21.26
2023-05-06T17:26:41.865Z,21.19
2023-05-06T17:29:09.310Z,21.07
2023-05-06T17:31:36.266Z,20.95
2023-05-06T17:34:03.875Z,20.99
2023-05-06T17:36:31.260Z,20.95
2023-05-06T17:39:07.662Z,20.98
2023-05-06T17:41:36.731Z,21.01
2023-05-06T17:44:05.945Z,20.97
2023-05-06T17:46:33.534Z,20.96
2023-05-06T17:49:00.647Z,20.85
2023-05-06T17:51:27.559Z,20.75
2023-05-06T17:53:54.156Z,20.70
2023-05-06T17:56:20.968Z,20.64
2023-05-06T17:58:50.037Z,20.61
2023-05-06T18:01:16.648Z,20.63
2023-05-06T18:03:45.065Z,20.61
2023-05-06T18:06:12.002Z,20.64
2023-05-06T18:08:38.619Z,20.65
2023-05-06T18:11:06.015Z,20.56
2023-05-06T18:13:36.405Z,20.54
2023-05-06T18:16:05.816Z,20.58
2023-05-06T18:18:32.484Z,20.61
2023-05-06T18:20:59.054Z,20.60
2023-05-06T18:23:26.542Z,20.55
2023-05-06T18:25:58.552Z,20.53
2023-05-06T18:28:27.646Z,20.48
2023-05-06T18:30:56.728Z,20.32
2023-05-06T18:33:25.446Z,20.19
2023-05-06T18:35:52.071Z,20.15
2023-05-06T18:38:18.762Z,20.17
2023-05-06T18:40:47.967Z,20.13
2023-05-06T18:43:14.590Z,20.10
2023-05-06T18:45:43.715Z,20.10
2023-05-06T18:48:11.010Z,20.07
2023-05-06T18:50:37.786Z,20.09
2023-05-06T18:53:04.708Z,20.12
2023-05-06T18:55:31.389Z,20.10
2023-05-06T18:58:04.766Z,20.05
2023-05-06T19:00:32.652Z,19.94
2023-05-06T19:02:59.287Z,19.88
2023-05-06T19:05:26.133Z,19.85
2023-05-06T19:07:52.708Z,19.80
2023-05-06T19:10:19.430Z,19.69
2023-05-06T19:12:46.193Z,19.37
2023-05-06T19:15:15.357Z,19.06
2023-05-06T19:17:42.142Z,18.92
2023-05-06T19:20:09.213Z,18.99
2023-05-06T19:22:40.702Z,19.15
2023-05-06T19:25:08.301Z,19.24
2023-05-06T19:27:37.474Z,19.36
2023-05-06T19:30:04.279Z,19.41
2023-05-06T19:32:31.542Z,19.49
2023-05-06T19:34:59.174Z,19.45
2023-05-06T19:37:34.415Z,19.48
2023-05-06T19:40:04.309Z,19.53
2023-05-06T19:42:33.702Z,19.57
2023-05-06T19:45:06.132Z,19.59
2023-05-06T19:47:32.982Z,19.62
2023-05-06T19:49:59.726Z,19.66
2023-05-06T19:52:30.620Z,19.66
2023-05-06T19:54:57.594Z,19.73
2023-05-06T19:57:27.721Z,19.54
2023-05-06T19:59:56.876Z,18.87
2023-05-06T20:02:23.954Z,18.50
2023-05-06T20:04:51.126Z,18.50
2023-05-06T20:07:18.100Z,18.54
2023-05-06T20:09:44.773Z,18.33
2023-05-06T20:12:13.974Z,18.35
2023-05-06T20:14:40.674Z,18.37
2023-05-06T20:17:09.551Z,18.34
2023-05-06T20:19:38.653Z,18.22
2023-05-06T20:22:05.384Z,18.24
2023-05-06T20:24:32.211Z,18.37
2023-05-06T20:26:59.209Z,18.54
2023-05-06T20:29:28.528Z,18.67
2023-05-06T20:31:55.407Z,18.77
2023-05-06T20:34:22.093Z,18.83
2023-05-06T20:36:50.236Z,18.86
2023-05-06T20:39:19.216Z,18.96
2023-05-06T20:41:48.386Z,19.01
2023-05-06T20:44:15.413Z,19.07
2023-05-06T20:46:44.522Z,19.13
2023-05-06T20:49:12.133Z,19.15
2023-05-06T20:51:41.570Z,19.12
2023-05-06T20:54:08.610Z,19.15
2023-05-06T20:56:37.726Z,19.20
2023-05-06T20:59:06.897Z,19.22
2023-05-06T21:01:33.572Z,19.25
2023-05-06T21:04:04.782Z,19.22
2023-05-06T21:06:36.202Z,19.16
2023-05-06T21:09:03.226Z,19.11
2023-05-06T21:11:37.368Z,19.04
2023-05-06T21:14:06.855Z,19.03
2023-05-06T21:16:33.580Z,19.08
2023-05-06T21:19:02.667Z,18.99
2023-05-06T21:21:32.844Z,18.96
2023-05-06T21:24:02.062Z,18.94
2023-05-06T21:26:32.690Z,18.94
2023-05-06T21:29:03.869Z,18.89
2023-05-06T21:31:30.687Z,18.84
2023-05-06T21:34:00.526Z,18.61
2023-05-06T21:36:27.385Z,18.41
2023-05-06T21:39:01.782Z,18.28
2023-05-06T21:41:28.725Z,18.19
2023-05-06T21:43:55.389Z,18.08
2023-05-06T21:46:24.796Z,18.00
2023-05-06T21:48:51.460Z,17.96
2023-05-06T21:51:18.038Z,17.93
2023-05-06T21:53:50.609Z,17.90
2023-05-06T21:56:20.253Z,17.85
2023-05-06T21:58:49.529Z,17.83
2023-05-06T22:01:16.152Z,17.81
2023-05-06T22:03:43.727Z,17.81
2023-05-06T22:06:10.399Z,17.82
2023-05-06T22:08:37.138Z,17.91
2023-05-06T22:11:06.660Z,17.99
2023-05-06T22:13:36.257Z,17.96
2023-05-06T22:16:05.697Z,17.79
2023-05-06T22:18:36.031Z,17.73
2023-05-06T22:21:03.486Z,17.75
2023-05-06T22:23:30.170Z,17.65
2023-05-06T22:26:00.306Z,17.68
2023-05-06T22:28:27.165Z,17.77
2023-05-06T22:30:56.686Z,17.66
2023-05-06T22:33:25.790Z,17.73
2023-05-06T22:35:55.562Z,17.75
2023-05-06T22:38:22.294Z,17.77
2023-05-06T22:40:49.326Z,17.91
2023-05-06T22:43:15.983Z,18.02
2023-05-06T22:45:45.132Z,18.04
2023-05-06T22:48:12.323Z,18.06
2023-05-06T22:50:39.040Z,17.99
2023-05-06T22:53:14.582Z,17.98
2023-05-06T22:55:42.506Z,17.95
2023-05-06T22:58:11.829Z,17.95
2023-05-06T23:00:41.066Z,17.92
2023-05-06T23:03:08.091Z,17.91
2023-05-06T23:05:37.623Z,17.90
2023-05-06T23:08:06.374Z,17.80
2023-05-06T23:10:32.971Z,17.82
2023-05-06T23:13:03.129Z,17.70
2023-05-06T23:15:29.781Z,17.64
2023-05-06T23:17:58.780Z,17.78
2023-05-06T23:20:30.183Z,17.85
2023-05-06T23:22:56.858Z,17.77
2023-05-06T23:25:28.291Z,17.76
2023-05-06T23:27:55.350Z,17.81
2023-05-06T23:30:22.003Z,17.83
2023-05-06T23:32:48.616Z,17.89
2023-05-06T23:35:15.329Z,17.95
2023-05-06T23:37:41.972Z,18.02
2023-05-06T23:40:08.749Z,18.00
2023-05-06T23:42:35.545Z,17.97
2023-05-06T23:45:05.089Z,17.98
2023-05-06T23:47:34.055Z,17.94
2023-05-06T23:50:01.082Z,17.94
2023-05-06T23:52:30.262Z,17.91
2023-05-06T23:54:56.833Z,17.88
2023-05-06T23:57:25.836Z,17.86
2023-05-06T23:59:52.452Z,17.86
